createdAt,value
2019-05-22T00:01:29.752Z,100.00
2019-05-22T00:07:16.126Z,100.00
2019-05-22T00:13:36.743Z,100.00
2019-05-22T00:16:21.355Z,100.00
2019-05-22T00:19:03.607Z,100.00
2019-05-22T00:25:33.167Z,100.00
2019-05-22T00:28:24.305Z,100.00
2019-05-22T00:31:17.855Z,100.00
2019-05-22T00:37:18.944Z,100.00
2019-05-22T00:40:30.849Z,100.00
2019-05-22T00:43:30.124Z,100.00
2019-05-22T00:46:21.799Z,100.00
2019-05-22T00:49:02.342Z,100.00
2019-05-22T00:52:11.418Z,100.00
2019-05-22T00:55:20.159Z,100.00
2019-05-22T00:58:29.291Z,100.00
2019-05-22T01:01:37.658Z,100.00
2019-05-22T01:07:46.838Z,100.00
2019-05-22T01:19:49.032Z,100.00
2019-05-22T01:22:39.748Z,100.00
2019-05-22T01:28:59.336Z,100.00
2019-05-22T01:31:52.191Z,100.00
2019-05-22T01:34:42.222Z,100.00
2019-05-22T01:49:50.312Z,100.00
2019-05-22T01:58:48.220Z,100.00
2019-05-22T02:01:40.425Z,100.00
2019-05-22T02:04:30.681Z,100.00
2019-05-22T02:07:20.766Z,100.00
2019-05-22T02:10:32.985Z,100.00
2019-05-22T02:16:01.185Z,100.00
2019-05-22T02:18:52.617Z,100.00
2019-05-22T02:21:35.803Z,100.00
2019-05-22T02:24:18.600Z,100.00
2019-05-22T02:27:02.145Z,100.00
2019-05-22T02:29:45.584Z,100.00
2019-05-22T02:32:29.170Z,100.00
2019-05-22T02:35:11.308Z,100.00
2019-05-22T02:38:01.422Z,100.00
2019-05-22T02:43:48.799Z,100.00
2019-05-22T02:46:39.012Z,100.00
2019-05-22T02:49:24.022Z,100.00
2019-05-22T02:52:06.884Z,100.00
2019-05-22T02:54:50.015Z,100.00
2019-05-22T02:57:31.642Z,100.00
2019-05-22T03:00:12.740Z,100.00
2019-05-22T03:03:02.479Z,100.00
2019-05-22T03:05:52.141Z,100.00
2019-05-22T03:09:02.555Z,100.00
2019-05-22T03:14:54.798Z,100.00
2019-05-22T03:20:43.856Z,100.00
2019-05-22T03:23:57.386Z,100.00
2019-05-22T03:27:07.311Z,100.00
2019-05-22T03:30:17.523Z,100.00
2019-05-22T03:33:08.494Z,100.00
2019-05-22T03:36:18.924Z,100.00
2019-05-22T03:39:09.210Z,100.00
2019-05-22T03:41:59.094Z,100.00
2019-05-22T03:45:09.499Z,100.00
2019-05-22T03:47:59.645Z,100.00
2019-05-22T03:50:41.778Z,100.00
2019-05-22T03:53:23.860Z,100.00
2019-05-22T03:55:56.867Z,100.00
2019-05-22T03:58:46.998Z,100.00
2019-05-22T04:01:36.933Z,100.00
2019-05-22T04:04:45.391Z,100.00
2019-05-22T04:10:53.743Z,100.00
2019-05-22T04:19:52.051Z,100.00
2019-05-22T04:22:43.780Z,100.00
2019-05-22T04:25:53.656Z,100.00
2019-05-22T04:28:35.781Z,100.00
2019-05-22T04:31:17.886Z,100.00
2019-05-22T04:33:59.835Z,100.00
2019-05-22T04:36:40.409Z,100.00
2019-05-22T04:39:50.181Z,100.00
2019-05-22T04:45:41.030Z,100.00
2019-05-22T04:51:32.711Z,100.00
2019-05-22T04:54:22.288Z,100.00
2019-05-22T04:57:12.719Z,100.00
2019-05-22T05:00:04.156Z,100.00
2019-05-22T05:02:55.257Z,100.00
2019-05-22T05:06:06.875Z,100.00
2019-05-22T05:08:57.803Z,100.00
2019-05-22T05:11:49.557Z,100.00
2019-05-22T05:14:39.995Z,100.00
2019-05-22T05:17:31.271Z,100.00
2019-05-22T05:20:22.781Z,100.00
2019-05-22T05:22:53.470Z,100.00
2019-05-22T05:25:35.178Z,100.00
2019-05-22T05:28:17.433Z,100.00
2019-05-22T05:30:49.247Z,100.00
2019-05-22T05:33:52.022Z,100.00
2019-05-22T05:36:42.673Z,100.00
2019-05-22T05:42:42.884Z,100.00
2019-05-22T05:45:54.859Z,100.00
2019-05-22T05:48:28.547Z,100.00
2019-05-22T05:54:19.563Z,100.00
2019-05-22T05:56:53.839Z,100.00
2019-05-22T05:59:28.825Z,100.00
2019-05-22T06:02:20.532Z,100.00
2019-05-22T06:04:56.812Z,100.00
2019-05-22T06:07:47.742Z,100.00
2019-05-22T06:10:54.684Z,100.00
2019-05-22T06:13:25.462Z,99.76
2019-05-22T06:19:31.688Z,99.04
2019-05-22T06:25:14.385Z,96.02
2019-05-22T06:28:15.235Z,92.81
2019-05-22T06:31:05.835Z,94.40
2019-05-22T06:33:37.602Z,92.87
2019-05-22T06:36:16.794Z,92.91
2019-05-22T06:42:25.152Z,93.01
2019-05-22T06:44:57.376Z,89.87
2019-05-22T06:47:29.743Z,89.48
2019-05-22T06:50:01.455Z,90.52
2019-05-22T06:52:32.640Z,88.93
2019-05-22T06:55:07.921Z,89.12
2019-05-22T06:57:39.693Z,88.87
2019-05-22T07:00:29.903Z,87.53
2019-05-22T07:03:19.674Z,87.92
2019-05-22T07:06:09.463Z,88.67
2019-05-22T07:08:40.099Z,89.31
2019-05-22T07:11:13.383Z,88.16
2019-05-22T07:14:04.633Z,88.22
2019-05-22T07:16:54.432Z,89.33
2019-05-22T07:19:25.305Z,85.12
2019-05-22T07:21:56.705Z,84.48
2019-05-22T07:24:29.331Z,85.04
2019-05-22T07:27:34.701Z,84.35
2019-05-22T07:30:06.257Z,84.42
2019-05-22T07:36:07.647Z,84.96
2019-05-22T07:38:39.662Z,83.44
2019-05-22T07:41:11.695Z,83.73
2019-05-22T07:43:43.523Z,82.96
2019-05-22T07:46:14.390Z,82.16
2019-05-22T07:49:04.001Z,80.45
2019-05-22T07:51:51.517Z,80.56
2019-05-22T07:54:29.445Z,79.72
2019-05-22T07:57:39.613Z,78.86
2019-05-22T08:00:12.711Z,79.62
2019-05-22T08:03:02.586Z,80.12
2019-05-22T08:05:55.008Z,79.57
2019-05-22T08:08:37.291Z,79.73
2019-05-22T08:11:19.833Z,78.96
2019-05-22T08:14:01.751Z,78.30
2019-05-22T08:16:43.509Z,78.65
2019-05-22T08:19:25.152Z,78.49
2019-05-22T08:22:07.641Z,80.13
2019-05-22T08:24:57.693Z,80.85
2019-05-22T08:28:09.504Z,82.78
2019-05-22T08:31:19.260Z,80.66
2019-05-22T08:33:51.628Z,75.56
2019-05-22T08:37:01.457Z,72.01
2019-05-22T08:39:52.310Z,71.95
2019-05-22T08:42:24.900Z,71.88
2019-05-22T08:45:35.236Z,71.81
2019-05-22T08:48:25.091Z,70.63
2019-05-22T08:50:58.895Z,69.83
2019-05-22T08:53:49.115Z,69.92
2019-05-22T08:56:39.068Z,69.78
2019-05-22T08:59:28.694Z,71.87
2019-05-22T09:02:18.572Z,70.11
2019-05-22T09:05:08.351Z,71.60
2019-05-22T09:07:58.689Z,71.90
2019-05-22T09:10:46.815Z,71.16
2019-05-22T09:13:44.270Z,69.77
2019-05-22T09:16:35.520Z,66.38
2019-05-22T09:19:28.471Z,61.74
2019-05-22T09:22:04.634Z,57.61
2019-05-22T09:24:37.088Z,57.56
2019-05-22T09:27:11.611Z,57.64
2019-05-22T09:29:43.558Z,60.13
2019-05-22T09:32:14.901Z,59.94
2019-05-22T09:38:17.467Z,63.40
2019-05-22T09:41:08.541Z,64.11
2019-05-22T09:43:58.168Z,64.60
2019-05-22T09:46:40.232Z,64.37
2019-05-22T09:49:24.007Z,64.64
2019-05-22T09:52:05.574Z,64.88
2019-05-22T09:57:26.825Z,63.97
2019-05-22T10:00:09.320Z,65.11
2019-05-22T10:02:59.373Z,65.44
2019-05-22T10:05:50.367Z,64.04
2019-05-22T10:08:58.854Z,66.14
2019-05-22T10:11:30.623Z,64.51
2019-05-22T10:14:21.019Z,64.62
2019-05-22T10:16:52.187Z,64.73
2019-05-22T10:19:44.516Z,62.29
2019-05-22T10:22:36.835Z,63.07
2019-05-22T10:25:26.570Z,62.07
2019-05-22T10:31:17.939Z,62.40
2019-05-22T10:34:09.435Z,61.70
2019-05-22T10:37:00.179Z,64.01
2019-05-22T10:39:50.854Z,63.53
2019-05-22T10:42:44.633Z,63.19
2019-05-22T10:51:49.331Z,61.91
2019-05-22T10:54:40.289Z,61.00
2019-05-22T11:03:08.104Z,61.15
2019-05-22T11:06:07.064Z,60.62
2019-05-22T11:08:51.389Z,60.28
2019-05-22T11:12:04.412Z,59.97
2019-05-22T11:14:39.047Z,61.04
2019-05-22T11:17:28.999Z,59.06
2019-05-22T11:20:19.958Z,58.42
2019-05-22T11:22:52.514Z,56.88
2019-05-22T11:25:31.463Z,55.64
2019-05-22T11:28:04.608Z,52.89
2019-05-22T11:30:54.729Z,49.59
2019-05-22T11:33:44.780Z,51.87
2019-05-22T11:36:36.798Z,52.71
2019-05-22T11:39:39.366Z,56.40
2019-05-22T11:42:22.998Z,58.65
2019-05-22T11:47:51.282Z,58.21
2019-05-22T11:50:42.936Z,54.85
2019-05-22T11:53:35.191Z,53.83
2019-05-22T11:56:08.213Z,52.92
2019-05-22T11:58:40.874Z,53.73
2019-05-22T12:01:13.301Z,53.25
2019-05-22T12:03:46.580Z,55.64
2019-05-22T12:06:18.321Z,55.89
2019-05-22T12:09:13.168Z,54.42
2019-05-22T12:11:48.573Z,57.07
2019-05-22T12:14:40.736Z,55.24
2019-05-22T12:17:15.566Z,56.00
2019-05-22T12:19:49.863Z,58.99
2019-05-22T12:22:20.755Z,52.25
2019-05-22T12:25:31.105Z,51.11
2019-05-22T12:28:23.123Z,52.68
2019-05-22T12:31:13.053Z,53.83
2019-05-22T12:34:02.978Z,55.67
2019-05-22T12:36:52.816Z,51.59
2019-05-22T12:39:24.836Z,50.54
2019-05-22T12:42:18.432Z,53.05
2019-05-22T12:47:29.441Z,54.05
2019-05-22T12:50:01.093Z,54.51
2019-05-22T12:52:34.477Z,53.63
2019-05-22T12:55:09.281Z,51.90
2019-05-22T12:58:20.074Z,51.69
2019-05-22T13:01:10.724Z,49.43
2019-05-22T13:03:43.684Z,51.12
2019-05-22T13:06:35.292Z,52.27
2019-05-22T13:09:27.301Z,51.79
2019-05-22T13:12:19.954Z,52.81
2019-05-22T13:15:11.049Z,53.01
2019-05-22T13:21:00.666Z,41.42
2019-05-22T13:24:10.805Z,45.91
2019-05-22T13:33:16.094Z,36.54
2019-05-22T13:35:49.192Z,37.63
2019-05-22T13:38:21.719Z,40.62
2019-05-22T13:41:11.674Z,36.70
2019-05-22T13:44:01.621Z,33.71
2019-05-22T13:46:34.602Z,32.02
2019-05-22T13:49:24.330Z,29.53
2019-05-22T13:51:55.376Z,28.65
2019-05-22T13:54:28.448Z,36.04
2019-05-22T13:56:59.585Z,39.31
2019-05-22T13:59:49.198Z,41.77
2019-05-22T14:02:43.885Z,42.17
2019-05-22T14:05:34.879Z,41.79
2019-05-22T14:08:26.427Z,42.71
2019-05-22T14:11:18.249Z,44.00
2019-05-22T14:13:53.182Z,44.08
2019-05-22T14:16:48.668Z,40.43
2019-05-22T14:19:35.383Z,38.43
2019-05-22T14:22:48.404Z,40.61
2019-05-22T14:25:58.449Z,41.14
2019-05-22T14:28:48.129Z,38.83
2019-05-22T14:31:19.701Z,43.26
2019-05-22T14:34:10.212Z,42.62
2019-05-22T14:36:52.604Z,42.92
2019-05-22T14:39:47.281Z,43.52
2019-05-22T14:42:37.190Z,45.25
2019-05-22T14:45:09.720Z,38.54
2019-05-22T14:47:59.953Z,35.73
2019-05-22T14:50:49.668Z,39.26
2019-05-22T14:53:40.600Z,34.68
2019-05-22T14:59:07.416Z,31.28
2019-05-22T15:02:05.163Z,34.41
2019-05-22T15:04:45.721Z,38.57
2019-05-22T15:11:14.975Z,39.86
2019-05-22T15:13:11.470Z,35.72
2019-05-22T15:15:44.350Z,34.09
2019-05-22T15:18:34.383Z,34.29
2019-05-22T15:24:05.738Z,43.41
2019-05-22T15:26:58.839Z,44.43
2019-05-22T15:30:13.544Z,39.74
2019-05-22T15:33:19.991Z,32.40
2019-05-22T15:36:15.250Z,31.75
2019-05-22T15:38:56.690Z,31.65
2019-05-22T15:41:40.633Z,32.32
2019-05-22T15:44:31.394Z,30.75
2019-05-22T15:47:02.306Z,33.37
2019-05-22T15:50:10.818Z,37.78
2019-05-22T15:53:22.199Z,41.54
2019-05-22T15:56:12.443Z,44.01
2019-05-22T16:02:50.913Z,48.75
2019-05-22T16:05:42.302Z,48.87
2019-05-22T16:08:40.920Z,48.56
2019-05-22T16:11:31.588Z,48.94
2019-05-22T16:17:16.081Z,48.18
2019-05-22T16:20:07.730Z,50.16
2019-05-22T16:22:59.011Z,49.49
2019-05-22T16:25:50.068Z,50.49
2019-05-22T16:29:04.443Z,51.24
2019-05-22T16:34:30.274Z,48.51
2019-05-22T16:37:11.345Z,49.69
2019-05-22T16:43:19.541Z,51.60
2019-05-22T16:45:50.253Z,52.77
2019-05-22T16:48:43.683Z,55.48
2019-05-22T16:54:47.639Z,54.79
2019-05-22T16:57:57.801Z,55.72
2019-05-22T17:00:49.578Z,54.10
2019-05-22T17:06:49.825Z,51.89
2019-05-22T17:10:04.848Z,51.77
2019-05-22T17:12:47.672Z,51.79
2019-05-22T17:15:30.924Z,51.80
2019-05-22T17:18:13.075Z,51.00
2019-05-22T17:20:55.211Z,52.16
2019-05-22T17:23:37.102Z,51.32
2019-05-22T17:26:28.085Z,52.07
2019-05-22T17:29:17.864Z,52.07
2019-05-22T17:35:18.527Z,51.15
2019-05-22T17:38:09.608Z,51.87
2019-05-22T17:40:51.240Z,52.35
2019-05-22T17:43:24.629Z,55.97
2019-05-22T17:45:58.835Z,53.67
2019-05-22T17:48:31.701Z,56.70
2019-05-22T17:51:22.337Z,55.68
2019-05-22T17:54:13.842Z,56.63
2019-05-22T17:56:45.914Z,54.86
2019-05-22T17:59:36.492Z,55.07
2019-05-22T18:02:13.937Z,58.13
2019-05-22T18:05:06.623Z,57.25
2019-05-22T18:07:56.529Z,58.18
2019-05-22T18:10:50.983Z,59.69
2019-05-22T18:13:22.361Z,56.30
2019-05-22T18:15:53.668Z,58.90
2019-05-22T18:18:44.356Z,59.99
2019-05-22T18:21:15.534Z,62.75
2019-05-22T18:23:46.841Z,62.30
2019-05-22T18:26:36.967Z,63.60
2019-05-22T18:29:08.908Z,64.49
2019-05-22T18:31:43.293Z,61.30
2019-05-22T18:34:18.080Z,62.53
2019-05-22T18:37:10.469Z,64.85
2019-05-22T18:40:03.570Z,66.36
2019-05-22T18:42:35.984Z,66.39
2019-05-22T18:45:08.483Z,66.92
2019-05-22T18:47:40.486Z,68.88
2019-05-22T18:50:12.720Z,69.18
2019-05-22T18:53:04.891Z,68.12
2019-05-22T18:55:55.367Z,70.45
2019-05-22T18:58:30.585Z,73.11
2019-05-22T19:01:21.881Z,74.27
2019-05-22T19:03:53.747Z,73.74
2019-05-22T19:06:44.483Z,74.73
2019-05-22T19:09:36.140Z,75.85
2019-05-22T19:12:27.452Z,74.79
2019-05-22T19:15:20.876Z,75.40
2019-05-22T19:18:27.276Z,76.54
2019-05-22T19:21:19.696Z,76.62
2019-05-22T19:24:09.718Z,77.24
2019-05-22T19:26:59.809Z,78.65
2019-05-22T19:29:52.667Z,78.85
2019-05-22T19:32:43.959Z,79.27
2019-05-22T19:35:34.037Z,79.89
2019-05-22T19:38:24.722Z,79.64
2019-05-22T19:44:24.899Z,81.77
2019-05-22T19:47:15.785Z,82.42
2019-05-22T19:50:20.768Z,82.82
2019-05-22T19:55:58.375Z,85.08
2019-05-22T19:59:10.634Z,85.81
2019-05-22T20:07:52.405Z,87.97
2019-05-22T20:10:42.797Z,87.75
2019-05-22T20:13:33.563Z,87.71
2019-05-22T20:18:43.038Z,88.57
2019-05-22T20:21:34.175Z,89.14
2019-05-22T20:24:24.543Z,89.92
2019-05-22T20:27:14.275Z,90.72
2019-05-22T20:30:04.341Z,90.74
2019-05-22T20:32:54.562Z,91.65
2019-05-22T20:35:44.956Z,91.84
2019-05-22T20:38:35.063Z,92.19
2019-05-22T20:41:17.964Z,92.79
2019-05-22T20:44:02.712Z,93.50
2019-05-22T20:46:37.639Z,93.79
2019-05-22T20:49:26.631Z,94.23
2019-05-22T20:52:36.881Z,94.72
2019-05-22T21:01:41.077Z,96.18
2019-05-22T21:04:16.343Z,96.28
2019-05-22T21:07:09.921Z,95.82
2019-05-22T21:09:42.413Z,95.97
2019-05-22T21:12:35.902Z,96.21
2019-05-22T21:15:47.765Z,96.38
2019-05-22T21:19:01.945Z,96.40
2019-05-22T21:21:52.907Z,96.55
2019-05-22T21:27:39.791Z,97.26
2019-05-22T21:30:29.908Z,97.17
2019-05-22T21:33:22.619Z,97.67
2019-05-22T21:36:15.106Z,97.73
2019-05-22T21:38:53.236Z,98.12
2019-05-22T21:41:40.972Z,98.79
2019-05-22T21:44:19.883Z,98.21
2019-05-22T21:47:10.601Z,97.90
2019-05-22T21:50:19.147Z,98.03
2019-05-22T21:53:00.530Z,98.05
2019-05-22T21:55:32.234Z,98.41
2019-05-22T21:58:05.223Z,99.11
2019-05-22T22:01:13.707Z,99.43
2019-05-22T22:06:46.403Z,99.91
2019-05-22T22:09:27.788Z,100.00
2019-05-22T22:18:57.113Z,100.00
2019-05-22T22:22:09.018Z,100.00
2019-05-22T22:24:41.301Z,100.00
2019-05-22T22:27:32.707Z,100.00
2019-05-22T22:30:21.160Z,100.00
2019-05-22T22:32:52.674Z,100.00
2019-05-22T22:35:42.946Z,100.00
2019-05-22T22:38:52.036Z,100.00
2019-05-22T22:41:42.954Z,100.00
2019-05-22T22:44:32.795Z,100.00
2019-05-22T22:47:43.894Z,100.00
2019-05-22T22:53:31.622Z,100.00
2019-05-22T22:56:22.341Z,100.00
2019-05-22T22:59:13.237Z,100.00
2019-05-22T23:04:51.198Z,100.00
2019-05-22T23:07:32.539Z,100.00
2019-05-22T23:12:59.453Z,100.00
2019-05-22T23:15:42.238Z,100.00
2019-05-22T23:18:23.683Z,100.00
2019-05-22T23:21:09.115Z,100.00
2019-05-22T23:26:16.591Z,100.00
2019-05-22T23:28:47.280Z,100.00
2019-05-22T23:31:19.123Z,100.00
2019-05-22T23:34:09.690Z,100.00
2019-05-22T23:37:02.819Z,100.00
2019-05-22T23:39:54.337Z,100.00
2019-05-22T23:46:00.678Z,100.00
2019-05-22T23:48:50.173Z,100.00
2019-05-22T23:51:40.836Z,100.00
2019-05-22T23:54:35.014Z,100.00
